VTA480 NTAA-NTTG
Flight info
| Callsign | VTA480 |
|---|---|
| Flight time | 0h 56m |
| Altitude | 17000 |
| Route | ARITI4W ARITI DCT IKELO DCT ORARE DCT GODOL |
| Aircraft | AT76/M-SDFGIRY/S |
Departure
| Time | 2026-05-08 03:03 |
|---|---|
| Airport | Fa'a'ā International Airport (NTAA) |
Arrival
| Time | 2026-05-08 04:00 |
|---|---|
| Airport | Rangiroa Airport (NTTG) |
| Time | Latitude | Longitude | Altitude | Speed | Heading |
|---|---|---|---|---|---|
| 2026-05-08 02:51 | -17.55861 | -149.61086 | 13 ft | 0 kts | 345° |
| 2026-05-08 02:58 | -17.55836 | -149.61091 | 12 ft | 7 kts | 359° |
| 2026-05-08 02:58 | -17.55790 | -149.61067 | 12 ft | 8 kts | 12° |
| 2026-05-08 02:58 | -17.55749 | -149.61083 | 11 ft | 0 kts | 323° |
| 2026-05-08 02:59 | -17.55744 | -149.61087 | 11 ft | 4 kts | 323° |
| 2026-05-08 02:59 | -17.55702 | -149.61119 | 10 ft | 11 kts | 327° |
| 2026-05-08 02:59 | -17.55625 | -149.61104 | 9 ft | 13 kts | 48° |
| 2026-05-08 03:00 | -17.55571 | -149.61025 | 10 ft | 13 kts | 54° |
| 2026-05-08 03:00 | -17.55518 | -149.60949 | 11 ft | 14 kts | 53° |
| 2026-05-08 03:00 | -17.55459 | -149.60862 | 11 ft | 15 kts | 55° |
| 2026-05-08 03:00 | -17.55397 | -149.60770 | 11 ft | 16 kts | 53° |
| 2026-05-08 03:01 | -17.55334 | -149.60680 | 11 ft | 13 kts | 54° |
| 2026-05-08 03:01 | -17.55325 | -149.60651 | 11 ft | 3 kts | 58° |
| 2026-05-08 03:01 | -17.55318 | -149.60652 | 11 ft | 1 kts | 336° |
| 2026-05-08 03:01 | -17.55322 | -149.60669 | 11 ft | 3 kts | 236° |
| 2026-05-08 03:02 | -17.55332 | -149.60680 | 11 ft | 0 kts | 232° |
| 2026-05-08 03:02 | -17.55404 | -149.60783 | 11 ft | 46 kts | 234° |
| 2026-05-08 03:02 | -17.55704 | -149.61217 | 10 ft | 101 kts | 233° |
| 2026-05-08 03:03 | -17.56173 | -149.61903 | 255 ft | 121 kts | 234° |
| 2026-05-08 03:03 | -17.56293 | -149.62789 | 758 ft | 137 kts | 284° |
| 2026-05-08 03:03 | -17.55652 | -149.63614 | 1096 ft | 156 kts | 335° |
| 2026-05-08 03:03 | -17.54589 | -149.63604 | 1477 ft | 157 kts | 21° |
| 2026-05-08 03:04 | -17.53670 | -149.63104 | 2098 ft | 144 kts | 57° |
| 2026-05-08 03:04 | -17.53080 | -149.62194 | 2463 ft | 161 kts | 53° |
| 2026-05-08 03:04 | -17.52181 | -149.61417 | 2809 ft | 179 kts | 33° |
| 2026-05-08 03:04 | -17.50986 | -149.61010 | 3089 ft | 180 kts | 27° |
| 2026-05-08 03:05 | -17.50043 | -149.60204 | 3405 ft | 175 kts | 47° |
| 2026-05-08 03:05 | -17.48902 | -149.59697 | 3709 ft | 186 kts | 12° |
| 2026-05-08 03:05 | -17.47635 | -149.59438 | 3991 ft | 183 kts | 35° |
| 2026-05-08 03:05 | -17.46655 | -149.58635 | 4380 ft | 180 kts | 44° |
| 2026-05-08 03:06 | -17.46030 | -149.58128 | 4570 ft | 184 kts | 41° |
| 2026-05-08 03:06 | -17.45061 | -149.57459 | 4778 ft | 178 kts | 38° |
| 2026-05-08 03:06 | -17.43961 | -149.56800 | 5114 ft | 182 kts | 34° |
| 2026-05-08 03:06 | -17.42874 | -149.56201 | 5741 ft | 172 kts | 31° |
| 2026-05-08 03:07 | -17.41841 | -149.55635 | 6321 ft | 164 kts | 30° |
| 2026-05-08 03:07 | -17.40810 | -149.55090 | 6683 ft | 169 kts | 32° |
| 2026-05-08 03:07 | -17.39781 | -149.54514 | 7127 ft | 169 kts | 36° |
| 2026-05-08 03:07 | -17.38743 | -149.53942 | 7598 ft | 167 kts | 35° |
| 2026-05-08 03:08 | -17.37742 | -149.53327 | 8043 ft | 168 kts | 36° |
| 2026-05-08 03:08 | -17.36693 | -149.52711 | 8369 ft | 176 kts | 31° |
| 2026-05-08 03:08 | -17.35596 | -149.52118 | 8739 ft | 179 kts | 32° |
| 2026-05-08 03:08 | -17.34489 | -149.51499 | 9121 ft | 181 kts | 34° |
| 2026-05-08 03:09 | -17.33377 | -149.50876 | 9514 ft | 182 kts | 31° |
| 2026-05-08 03:09 | -17.32255 | -149.50250 | 9891 ft | 184 kts | 34° |
| 2026-05-08 03:09 | -17.31124 | -149.49601 | 10185 ft | 188 kts | 33° |
| 2026-05-08 03:09 | -17.29973 | -149.48940 | 10553 ft | 189 kts | 32° |
| 2026-05-08 03:10 | -17.28821 | -149.48268 | 10941 ft | 191 kts | 34° |
| 2026-05-08 03:10 | -17.27650 | -149.47604 | 11309 ft | 192 kts | 33° |
| 2026-05-08 03:10 | -17.26468 | -149.46942 | 11690 ft | 194 kts | 31° |
| 2026-05-08 03:10 | -17.25277 | -149.46287 | 12021 ft | 199 kts | 33° |
| 2026-05-08 03:11 | -17.24052 | -149.45592 | 12383 ft | 201 kts | 31° |
| 2026-05-08 03:11 | -17.22813 | -149.44894 | 12749 ft | 202 kts | 31° |
| 2026-05-08 03:11 | -17.21581 | -149.44188 | 13133 ft | 203 kts | 33° |
| 2026-05-08 03:11 | -17.20330 | -149.43490 | 13508 ft | 204 kts | 32° |
| 2026-05-08 03:12 | -17.19066 | -149.42783 | 13843 ft | 207 kts | 33° |
| 2026-05-08 03:12 | -17.17788 | -149.42050 | 14081 ft | 213 kts | 32° |
| 2026-05-08 03:12 | -17.16482 | -149.41296 | 14407 ft | 215 kts | 31° |
| 2026-05-08 03:12 | -17.15170 | -149.40541 | 14773 ft | 215 kts | 32° |
| 2026-05-08 03:13 | -17.13862 | -149.39792 | 15114 ft | 217 kts | 31° |
| 2026-05-08 03:13 | -17.12537 | -149.39044 | 15464 ft | 218 kts | 32° |
| 2026-05-08 03:13 | -17.11187 | -149.38290 | 15754 ft | 220 kts | 30° |
| 2026-05-08 03:13 | -17.09850 | -149.37530 | 16123 ft | 220 kts | 32° |
| 2026-05-08 03:14 | -17.08495 | -149.36758 | 16370 ft | 226 kts | 31° |
| 2026-05-08 03:14 | -17.07104 | -149.35967 | 16699 ft | 229 kts | 32° |
| 2026-05-08 03:14 | -17.05683 | -149.35165 | 16894 ft | 238 kts | 32° |
| 2026-05-08 03:14 | -17.04183 | -149.34316 | 16952 ft | 252 kts | 32° |
| 2026-05-08 03:15 | -17.02604 | -149.33409 | 16985 ft | 265 kts | 32° |
| 2026-05-08 03:15 | -17.00960 | -149.32483 | 16995 ft | 269 kts | 30° |
| 2026-05-08 03:15 | -16.99310 | -149.31563 | 16995 ft | 269 kts | 30° |
| 2026-05-08 03:15 | -16.97657 | -149.30647 | 16995 ft | 269 kts | 30° |
| 2026-05-08 03:16 | -16.96006 | -149.29732 | 17000 ft | 269 kts | 31° |
| 2026-05-08 03:16 | -16.94361 | -149.28809 | 17001 ft | 269 kts | 30° |
| 2026-05-08 03:16 | -16.92719 | -149.27881 | 16999 ft | 268 kts | 30° |
| 2026-05-08 03:16 | -16.91078 | -149.26953 | 17000 ft | 268 kts | 30° |
| 2026-05-08 03:17 | -16.89439 | -149.26027 | 16996 ft | 268 kts | 31° |
| 2026-05-08 03:17 | -16.87798 | -149.25099 | 17001 ft | 268 kts | 30° |
| 2026-05-08 03:17 | -16.86157 | -149.24170 | 17000 ft | 268 kts | 30° |
| 2026-05-08 03:17 | -16.84514 | -149.23245 | 17001 ft | 268 kts | 30° |
| 2026-05-08 03:18 | -16.82870 | -149.22324 | 17002 ft | 268 kts | 31° |
| 2026-05-08 03:18 | -16.81248 | -149.21413 | 16998 ft | 268 kts | 31° |
| 2026-05-08 03:18 | -16.79630 | -149.20453 | 16997 ft | 266 kts | 37° |
| 2026-05-08 03:18 | -16.78201 | -149.19237 | 17000 ft | 265 kts | 45° |
| 2026-05-08 03:19 | -16.76856 | -149.17922 | 16996 ft | 265 kts | 46° |
| 2026-05-08 03:19 | -16.75507 | -149.16610 | 16998 ft | 265 kts | 45° |
| 2026-05-08 03:19 | -16.74131 | -149.15325 | 16998 ft | 265 kts | 44° |
| 2026-05-08 03:19 | -16.72733 | -149.14066 | 16998 ft | 265 kts | 43° |
| 2026-05-08 03:20 | -16.71333 | -149.12809 | 16999 ft | 266 kts | 43° |
| 2026-05-08 03:20 | -16.69930 | -149.11557 | 16998 ft | 266 kts | 43° |
| 2026-05-08 03:20 | -16.68524 | -149.10307 | 16997 ft | 265 kts | 43° |
| 2026-05-08 03:20 | -16.67123 | -149.09052 | 16996 ft | 265 kts | 43° |
| 2026-05-08 03:21 | -16.65725 | -149.07794 | 16994 ft | 265 kts | 44° |
| 2026-05-08 03:21 | -16.64329 | -149.06537 | 16996 ft | 265 kts | 44° |
| 2026-05-08 03:21 | -16.62932 | -149.05279 | 16996 ft | 265 kts | 44° |
| 2026-05-08 03:21 | -16.61538 | -149.04017 | 16997 ft | 265 kts | 43° |
| 2026-05-08 03:22 | -16.60164 | -149.02772 | 16999 ft | 265 kts | 43° |
| 2026-05-08 03:22 | -16.58766 | -149.01515 | 16994 ft | 265 kts | 44° |
| 2026-05-08 03:22 | -16.57367 | -149.00260 | 16995 ft | 265 kts | 44° |
| 2026-05-08 03:22 | -16.55969 | -148.99002 | 16996 ft | 265 kts | 43° |
| 2026-05-08 03:23 | -16.54577 | -148.97745 | 16996 ft | 265 kts | 43° |
| 2026-05-08 03:23 | -16.53176 | -148.96486 | 16998 ft | 265 kts | 43° |
| 2026-05-08 03:23 | -16.51781 | -148.95235 | 16996 ft | 265 kts | 43° |
| 2026-05-08 03:23 | -16.50611 | -148.94181 | 16996 ft | 265 kts | 43° |
| 2026-05-08 03:24 | -16.49218 | -148.92924 | 16994 ft | 265 kts | 43° |
| 2026-05-08 03:24 | -16.47820 | -148.91670 | 16995 ft | 265 kts | 43° |
| 2026-05-08 03:24 | -16.46424 | -148.90417 | 16995 ft | 265 kts | 43° |
| 2026-05-08 03:24 | -16.45032 | -148.89165 | 16994 ft | 264 kts | 44° |
| 2026-05-08 03:25 | -16.43643 | -148.87910 | 16993 ft | 264 kts | 43° |
| 2026-05-08 03:25 | -16.42264 | -148.86672 | 16992 ft | 264 kts | 43° |
| 2026-05-08 03:25 | -16.40870 | -148.85426 | 16993 ft | 264 kts | 43° |
| 2026-05-08 03:25 | -16.39480 | -148.84180 | 16993 ft | 263 kts | 43° |
| 2026-05-08 03:26 | -16.38116 | -148.82953 | 16994 ft | 262 kts | 43° |
| 2026-05-08 03:26 | -16.36740 | -148.81714 | 16992 ft | 261 kts | 43° |
| 2026-05-08 03:26 | -16.35369 | -148.80484 | 16993 ft | 261 kts | 43° |
| 2026-05-08 03:26 | -16.33995 | -148.79255 | 16994 ft | 260 kts | 43° |
| 2026-05-08 03:27 | -16.32628 | -148.78025 | 16994 ft | 260 kts | 43° |
| 2026-05-08 03:27 | -16.31262 | -148.76796 | 16992 ft | 259 kts | 43° |
| 2026-05-08 03:27 | -16.29895 | -148.75571 | 16994 ft | 259 kts | 43° |
| 2026-05-08 03:27 | -16.28527 | -148.74349 | 16994 ft | 259 kts | 43° |
| 2026-05-08 03:28 | -16.27164 | -148.73124 | 16994 ft | 259 kts | 43° |
| 2026-05-08 03:28 | -16.25802 | -148.71899 | 16993 ft | 259 kts | 43° |
| 2026-05-08 03:28 | -16.24440 | -148.70681 | 16992 ft | 258 kts | 43° |
| 2026-05-08 03:28 | -16.23077 | -148.69463 | 16993 ft | 258 kts | 43° |
| 2026-05-08 03:29 | -16.21716 | -148.68242 | 16993 ft | 258 kts | 43° |
| 2026-05-08 03:29 | -16.20357 | -148.67020 | 16993 ft | 258 kts | 43° |
| 2026-05-08 03:29 | -16.18996 | -148.65804 | 16991 ft | 258 kts | 43° |
| 2026-05-08 03:29 | -16.17632 | -148.64592 | 16993 ft | 258 kts | 43° |
| 2026-05-08 03:30 | -16.14924 | -148.62155 | 16997 ft | 257 kts | 43° |
| 2026-05-08 03:30 | -16.12210 | -148.59731 | 16991 ft | 257 kts | 44° |
| 2026-05-08 03:31 | -16.09518 | -148.57318 | 16991 ft | 257 kts | 43° |
| 2026-05-08 03:31 | -16.06803 | -148.54899 | 16990 ft | 257 kts | 43° |
| 2026-05-08 03:32 | -16.05464 | -148.53703 | 16991 ft | 257 kts | 43° |
| 2026-05-08 03:32 | -16.04107 | -148.52486 | 16991 ft | 257 kts | 43° |
| 2026-05-08 03:32 | -16.02757 | -148.51275 | 16989 ft | 257 kts | 43° |
| 2026-05-08 03:32 | -16.01396 | -148.50063 | 16990 ft | 257 kts | 43° |
| 2026-05-08 03:33 | -16.00037 | -148.48854 | 16991 ft | 257 kts | 43° |
| 2026-05-08 03:33 | -15.98898 | -148.47834 | 16991 ft | 257 kts | 43° |
| 2026-05-08 03:33 | -15.97540 | -148.46626 | 16987 ft | 257 kts | 44° |
| 2026-05-08 03:33 | -15.96183 | -148.45417 | 16988 ft | 257 kts | 43° |
| 2026-05-08 03:34 | -15.94826 | -148.44209 | 16988 ft | 257 kts | 43° |
| 2026-05-08 03:34 | -15.93477 | -148.42995 | 16987 ft | 257 kts | 43° |
| 2026-05-08 03:34 | -15.92126 | -148.41783 | 16987 ft | 256 kts | 43° |
| 2026-05-08 03:34 | -15.90771 | -148.40579 | 16988 ft | 256 kts | 43° |
| 2026-05-08 03:35 | -15.89293 | -148.39539 | 16990 ft | 257 kts | 32° |
| 2026-05-08 03:35 | -15.87708 | -148.38672 | 16990 ft | 258 kts | 29° |
| 2026-05-08 03:35 | -15.86121 | -148.37825 | 16991 ft | 257 kts | 29° |
| 2026-05-08 03:35 | -15.84544 | -148.36944 | 16991 ft | 257 kts | 31° |
| 2026-05-08 03:36 | -15.82988 | -148.36030 | 16983 ft | 258 kts | 32° |
| 2026-05-08 03:36 | -15.81455 | -148.35116 | 16986 ft | 258 kts | 32° |
| 2026-05-08 03:36 | -15.79906 | -148.34192 | 16986 ft | 257 kts | 32° |
| 2026-05-08 03:36 | -15.78355 | -148.33262 | 16986 ft | 257 kts | 32° |
| 2026-05-08 03:37 | -15.76804 | -148.32338 | 16988 ft | 258 kts | 32° |
| 2026-05-08 03:37 | -15.75245 | -148.31417 | 16987 ft | 258 kts | 32° |
| 2026-05-08 03:37 | -15.73684 | -148.30496 | 16987 ft | 258 kts | 32° |
| 2026-05-08 03:37 | -15.72125 | -148.29575 | 16988 ft | 258 kts | 32° |
| 2026-05-08 03:38 | -15.70562 | -148.28654 | 16989 ft | 258 kts | 32° |
| 2026-05-08 03:38 | -15.69001 | -148.27738 | 16988 ft | 258 kts | 32° |
| 2026-05-08 03:38 | -15.67440 | -148.26823 | 16988 ft | 258 kts | 31° |
| 2026-05-08 03:38 | -15.65881 | -148.25901 | 16989 ft | 258 kts | 32° |
| 2026-05-08 03:39 | -15.64343 | -148.24984 | 16931 ft | 251 kts | 32° |
| 2026-05-08 03:39 | -15.62821 | -148.24069 | 16615 ft | 254 kts | 33° |
| 2026-05-08 03:39 | -15.61283 | -148.23156 | 16301 ft | 256 kts | 32° |
| 2026-05-08 03:39 | -15.59734 | -148.22238 | 15992 ft | 257 kts | 32° |
| 2026-05-08 03:40 | -15.58184 | -148.21327 | 15687 ft | 258 kts | 32° |
| 2026-05-08 03:40 | -15.56640 | -148.20418 | 15380 ft | 258 kts | 32° |
| 2026-05-08 03:40 | -15.55079 | -148.19499 | 15079 ft | 259 kts | 33° |
| 2026-05-08 03:40 | -15.53512 | -148.18578 | 14781 ft | 259 kts | 33° |
| 2026-05-08 03:41 | -15.51947 | -148.17653 | 14480 ft | 259 kts | 33° |
| 2026-05-08 03:41 | -15.50381 | -148.16731 | 14191 ft | 259 kts | 33° |
| 2026-05-08 03:41 | -15.48815 | -148.15810 | 13895 ft | 259 kts | 33° |
| 2026-05-08 03:41 | -15.47254 | -148.14891 | 13575 ft | 258 kts | 33° |
| 2026-05-08 03:42 | -15.45692 | -148.13972 | 13254 ft | 258 kts | 33° |
| 2026-05-08 03:42 | -15.44135 | -148.13055 | 12925 ft | 257 kts | 33° |
| 2026-05-08 03:42 | -15.42582 | -148.12142 | 12600 ft | 256 kts | 33° |
| 2026-05-08 03:42 | -15.41032 | -148.11233 | 12282 ft | 255 kts | 33° |
| 2026-05-08 03:43 | -15.39486 | -148.10326 | 11961 ft | 254 kts | 33° |
| 2026-05-08 03:43 | -15.37950 | -148.09423 | 11650 ft | 253 kts | 33° |
| 2026-05-08 03:43 | -15.36421 | -148.08525 | 11341 ft | 252 kts | 33° |
| 2026-05-08 03:43 | -15.34902 | -148.07631 | 11035 ft | 251 kts | 33° |
| 2026-05-08 03:44 | -15.33385 | -148.06742 | 10735 ft | 250 kts | 33° |
| 2026-05-08 03:44 | -15.31876 | -148.05856 | 10432 ft | 249 kts | 33° |
| 2026-05-08 03:44 | -15.30374 | -148.04974 | 10130 ft | 247 kts | 33° |
| 2026-05-08 03:44 | -15.28880 | -148.04097 | 9837 ft | 246 kts | 33° |
| 2026-05-08 03:45 | -15.27410 | -148.03237 | 9511 ft | 245 kts | 33° |
| 2026-05-08 03:45 | -15.25927 | -148.02369 | 9181 ft | 244 kts | 33° |
| 2026-05-08 03:45 | -15.24454 | -148.01501 | 8857 ft | 243 kts | 33° |
| 2026-05-08 03:45 | -15.22986 | -148.00641 | 8537 ft | 242 kts | 33° |
| 2026-05-08 03:46 | -15.21523 | -147.99784 | 8221 ft | 241 kts | 33° |
| 2026-05-08 03:46 | -15.20070 | -147.98929 | 7904 ft | 240 kts | 33° |
| 2026-05-08 03:46 | -15.18617 | -147.98076 | 7600 ft | 240 kts | 33° |
| 2026-05-08 03:46 | -15.17167 | -147.97232 | 7295 ft | 239 kts | 33° |
| 2026-05-08 03:47 | -15.15720 | -147.96397 | 6984 ft | 238 kts | 33° |
| 2026-05-08 03:47 | -15.14276 | -147.95567 | 6685 ft | 237 kts | 33° |
| 2026-05-08 03:47 | -15.12843 | -147.94736 | 6389 ft | 236 kts | 34° |
| 2026-05-08 03:47 | -15.11421 | -147.93902 | 6059 ft | 235 kts | 34° |
| 2026-05-08 03:48 | -15.10002 | -147.93068 | 5746 ft | 234 kts | 34° |
| 2026-05-08 03:48 | -15.08587 | -147.92237 | 5435 ft | 234 kts | 34° |
| 2026-05-08 03:48 | -15.07174 | -147.91405 | 5128 ft | 234 kts | 34° |
| 2026-05-08 03:48 | -15.05762 | -147.90577 | 4819 ft | 233 kts | 33° |
| 2026-05-08 03:49 | -15.04351 | -147.89750 | 4491 ft | 234 kts | 33° |
| 2026-05-08 03:49 | -15.02951 | -147.88932 | 4168 ft | 233 kts | 33° |
| 2026-05-08 03:49 | -15.01539 | -147.88106 | 3849 ft | 233 kts | 33° |
| 2026-05-08 03:49 | -15.00170 | -147.87241 | 3534 ft | 226 kts | 44° |
| 2026-05-08 03:50 | -14.99410 | -147.85898 | 3254 ft | 215 kts | 79° |
| 2026-05-08 03:50 | -14.99264 | -147.84388 | 3108 ft | 207 kts | 90° |
| 2026-05-08 03:50 | -14.99356 | -147.82887 | 3052 ft | 214 kts | 98° |
| 2026-05-08 03:50 | -14.99669 | -147.81360 | 3010 ft | 221 kts | 104° |
| 2026-05-08 03:51 | -15.00101 | -147.79882 | 3001 ft | 208 kts | 108° |
| 2026-05-08 03:51 | -15.00540 | -147.78499 | 2979 ft | 197 kts | 108° |
| 2026-05-08 03:51 | -15.00960 | -147.77187 | 2978 ft | 187 kts | 107° |
| 2026-05-08 03:51 | -15.01337 | -147.75932 | 2985 ft | 179 kts | 107° |
| 2026-05-08 03:52 | -15.01693 | -147.74721 | 2987 ft | 173 kts | 106° |
| 2026-05-08 03:52 | -15.02037 | -147.73540 | 2987 ft | 170 kts | 106° |
| 2026-05-08 03:52 | -15.02365 | -147.72383 | 2977 ft | 166 kts | 105° |
| 2026-05-08 03:52 | -15.02691 | -147.71250 | 2962 ft | 164 kts | 107° |
| 2026-05-08 03:53 | -15.03026 | -147.70075 | 2714 ft | 176 kts | 107° |
| 2026-05-08 03:53 | -15.03379 | -147.68830 | 2471 ft | 184 kts | 106° |
| 2026-05-08 03:53 | -15.03760 | -147.67534 | 2245 ft | 191 kts | 106° |
| 2026-05-08 03:53 | -15.04144 | -147.66204 | 1992 ft | 195 kts | 107° |
| 2026-05-08 03:54 | -15.04398 | -147.65296 | 1882 ft | 197 kts | 106° |
| 2026-05-08 03:54 | -15.04780 | -147.63944 | 1791 ft | 194 kts | 107° |
| 2026-05-08 03:54 | -15.05154 | -147.62617 | 1717 ft | 189 kts | 107° |
| 2026-05-08 03:54 | -15.05518 | -147.61337 | 1695 ft | 182 kts | 107° |
| 2026-05-08 03:55 | -15.05874 | -147.60102 | 1709 ft | 177 kts | 107° |
| 2026-05-08 03:55 | -15.06203 | -147.58901 | 1673 ft | 174 kts | 102° |
| 2026-05-08 03:55 | -15.06021 | -147.57747 | 1589 ft | 158 kts | 57° |
| 2026-05-08 03:55 | -15.05179 | -147.57158 | 1664 ft | 145 kts | 23° |
| 2026-05-08 03:56 | -15.04208 | -147.56906 | 1573 ft | 146 kts | 14° |
| 2026-05-08 03:56 | -15.03196 | -147.56808 | 1541 ft | 145 kts | 2° |
| 2026-05-08 03:56 | -15.02214 | -147.56931 | 1579 ft | 136 kts | 351° |
| 2026-05-08 03:56 | -15.01378 | -147.57227 | 1613 ft | 123 kts | 341° |
| 2026-05-08 03:57 | -15.00572 | -147.57541 | 1503 ft | 126 kts | 342° |
| 2026-05-08 03:57 | -14.99758 | -147.57887 | 1437 ft | 127 kts | 340° |
| 2026-05-08 03:57 | -14.98977 | -147.58324 | 1378 ft | 129 kts | 330° |
| 2026-05-08 03:57 | -14.98292 | -147.58909 | 1349 ft | 127 kts | 316° |
| 2026-05-08 03:58 | -14.97716 | -147.59602 | 1297 ft | 126 kts | 308° |
| 2026-05-08 03:58 | -14.97205 | -147.60363 | 1148 ft | 130 kts | 302° |
| 2026-05-08 03:58 | -14.96812 | -147.61228 | 913 ft | 135 kts | 284° |
| 2026-05-08 03:58 | -14.96582 | -147.62179 | 712 ft | 138 kts | 285° |
| 2026-05-08 03:59 | -14.96292 | -147.63122 | 528 ft | 139 kts | 288° |
| 2026-05-08 03:59 | -14.96012 | -147.64083 | 347 ft | 140 kts | 286° |
| 2026-05-08 03:59 | -14.95727 | -147.65044 | 161 ft | 138 kts | 284° |
| 2026-05-08 03:59 | -14.95459 | -147.65973 | 14 ft | 126 kts | 285° |
| 2026-05-08 04:00 | -14.95279 | -147.66604 | 15 ft | 46 kts | 287° |
| 2026-05-08 04:00 | -14.95206 | -147.66858 | 13 ft | 27 kts | 287° |
| 2026-05-08 04:00 | -14.95165 | -147.66970 | 13 ft | 11 kts | 312° |
| 2026-05-08 04:00 | -14.95139 | -147.66998 | 14 ft | 6 kts | 262° |
| 2026-05-08 04:01 | -14.95169 | -147.66991 | 13 ft | 9 kts | 103° |
| 2026-05-08 04:01 | -14.95213 | -147.66834 | 13 ft | 31 kts | 107° |
| 2026-05-08 04:01 | -14.95268 | -147.66644 | 16 ft | 24 kts | 105° |
| 2026-05-08 04:01 | -14.95310 | -147.66497 | 14 ft | 21 kts | 107° |
| 2026-05-08 04:02 | -14.95355 | -147.66341 | 15 ft | 24 kts | 107° |
| 2026-05-08 04:02 | -14.95409 | -147.66155 | 15 ft | 30 kts | 106° |
| 2026-05-08 04:02 | -14.95469 | -147.65957 | 11 ft | 26 kts | 108° |
| 2026-05-08 04:02 | -14.95503 | -147.65825 | 9 ft | 15 kts | 111° |
| 2026-05-08 04:03 | -14.95556 | -147.65787 | 8 ft | 8 kts | 191° |
| 2026-05-08 04:03 | -14.95636 | -147.65859 | 8 ft | 7 kts | 205° |
| 2026-05-08 04:03 | -14.95655 | -147.65853 | 8 ft | 1 kts | 126° |
| 2026-05-08 04:04 | -14.95651 | -147.65842 | 8 ft | 3 kts | 49° |
| 2026-05-08 04:04 | -14.95636 | -147.65838 | 7 ft | 0 kts | 17° |
| 2026-05-08 04:07 | -14.95810 | -147.64747 | 229 ft | 139 kts | 285° |